Szolnok, Hungary

10:31 PM CET on December 17, 2014 (GMT +0100)
Szolnok | Change Station
CLOSE
Current Station
Personal Weather Station
Location: Szolnok, Jasz-Nagykun-Szolnok
Elevation: 282 ft
Nearby Weather Stations

Elev 282 ft 47.17 °N, 20.18 °E | Updated 23 seconds ago

Clear
Clear
34.2 °F
Feels Like 34 °F
N
2.3
Wind Variable Wind from WNW
Gusts 3.5 mph

Today
High -- | Low -- °F
--% Chance of Precip.
Yesterday
High -- | Low -- °F
Precip. -- in
7:19 AM 3:50 PM
Waning Crescent, 19% visible
Pressure 29.95 in
Visibility -9999.0 miles
Clouds
Windchill 34 °F
Dew Point 33 °F
Humidity 94%
Rainfall 0.06 in
Snow Depth Not available.
UV Not available.
Pollen Not available.
Air Quality Not available.
Flu Activity Not available.
METAR LHBP 172130Z 00000KT CAVOK M02/M02 Q1014 NOSIG

More Conditions Fewer Conditions

Pressure 29.95 in
Visibility -9999.0 miles
Clouds
Windchill 34 °F
Dew Point 33 °F
Humidity 94%
Rainfall 0.06 in
Snow Depth Not available.
UV Not available.
Pollen Not available.
Air Quality Not available.
Flu Activity Not available.
METAR LHBP 172130Z 00000KT CAVOK M02/M02 Q1014 NOSIG

More Conditions Fewer Conditions

10-Day Weather Forecast

Almanac

Astronomy

Dec. 17, 2014 Rise Set
Actual Time
Civil Twilight
Nautical Twilight
Astronomical Twilight
Moon
Length of Visible Light
Length of Day
Tomorrow will be .
, % of the Moon is Illuminated

Today's Extremes

Country Highs Country Lows

Community

WunderPhotos

Upload Photos

1,778,807 photos uploaded!

WunderBlogs® & News

Nearby

Air Quality

  Air Quality AQ Index Pollutant
Not available.

Snow Depth

Station Depth Elevation

Earthquake Activity

City Distance Mag. Time & Date
Minimum magnitude displayed is 2.5.

Coastal Water Temperatures

Place Temperature

Nearby Weather Stations